Time;durP1;ratioP1;P1;durP2;ratioP2;P2;SDS_P1;SDS_P2;PMS_P1;PMS_P2;Temp;Humidity;BMP_temperature;BMP_pressure;BME280_temperature;BME280_humidity;BME280_pressure;Samples;Min_cycle;Max_cycle;Signal;HPM_P1;HPM_P2
2020/12/24 00:01:25;;;;;;;1.80;1.20;;;21.40;40.00;;;;;;4976332;28;20895;-56
2020/12/24 00:03:50;;;;;;;1.67;1.10;;;21.40;40.00;;;;;;4972856;28;20507;-55
2020/12/24 00:06:16;;;;;;;2.30;1.20;;;21.40;40.00;;;;;;4974229;28;20408;-57
2020/12/24 00:08:42;;;;;;;1.73;1.10;;;21.40;40.00;;;;;;4972426;28;20404;-56
2020/12/24 00:11:08;;;;;;;2.13;1.20;;;21.40;40.00;;;;;;4974160;28;20475;-56
2020/12/24 00:13:35;;;;;;;1.98;1.20;;;21.40;40.00;;;;;;4974127;28;20931;-56
2020/12/24 00:16:01;;;;;;;2.40;1.10;;;21.40;40.00;;;;;;4973937;28;20386;-55
2020/12/24 00:18:26;;;;;;;1.67;1.15;;;21.40;40.00;;;;;;4974022;28;20392;-56
2020/12/24 00:20:53;;;;;;;2.03;1.20;;;21.40;40.00;;;;;;4973432;28;20942;-56
2020/12/24 00:23:19;;;;;;;1.92;1.10;;;21.40;40.00;;;;;;4973737;28;20392;-56
2020/12/24 00:25:44;;;;;;;1.80;1.20;;;21.40;40.00;;;;;;4973893;28;20439;-56
2020/12/24 00:28:10;;;;;;;2.10;1.27;;;21.40;39.90;;;;;;4973776;28;20507;-56
2020/12/24 00:30:40;;;;;;;1.85;1.10;;;21.40;40.00;;;;;;4973595;28;20719;-56
2020/12/24 00:33:09;;;;;;;2.35;1.33;;;21.30;39.90;;;;;;4973705;28;20415;-56
2020/12/24 00:35:35;;;;;;;1.75;1.10;;;21.40;40.00;;;;;;4973767;28;20554;-56
2020/12/24 00:38:01;;;;;;;1.50;1.20;;;21.30;39.90;;;;;;4956289;28;20949;-56
2020/12/24 00:40:27;;;;;;;1.60;1.17;;;21.30;39.90;;;;;;4956247;28;20423;-56
2020/12/24 00:42:53;;;;;;;1.70;1.20;;;21.30;39.90;;;;;;4973131;28;20403;-56
2020/12/24 00:45:19;;;;;;;1.40;1.13;;;21.30;39.80;;;;;;4973545;28;20829;-56
2020/12/24 00:47:45;;;;;;;2.50;1.25;;;21.30;39.80;;;;;;4973338;28;20908;-56
2020/12/24 00:50:10;;;;;;;2.00;1.10;;;21.30;39.90;;;;;;4973182;28;20944;-56
2020/12/24 00:52:36;;;;;;;1.90;1.30;;;21.30;39.80;;;;;;4973180;28;20404;-56
2020/12/24 00:55:01;;;;;;;2.03;1.20;;;21.30;39.80;;;;;;4973023;28;20865;-55
2020/12/24 00:57:27;;;;;;;1.90;1.40;;;21.30;39.80;;;;;;4973310;28;20523;-56
2020/12/24 00:59:53;;;;;;;1.92;1.10;;;21.30;39.80;;;;;;4973210;28;20434;-56
2020/12/24 01:02:18;;;;;;;2.30;1.30;;;21.30;39.80;;;;;;4979971;28;20425;-56
2020/12/24 01:04:44;;;;;;;1.67;1.20;;;21.30;39.80;;;;;;4992141;28;20398;-56
2020/12/24 01:07:09;;;;;;;2.00;1.13;;;21.30;39.80;;;;;;4992427;28;20791;-58
2020/12/24 01:09:35;;;;;;;1.80;1.20;;;21.30;39.80;;;;;;4992307;28;20505;-57
2020/12/24 01:12:02;;;;;;;1.65;1.15;;;21.30;39.70;;;;;;4991090;28;21370;-56
2020/12/24 01:14:28;;;;;;;1.77;1.20;;;21.30;39.70;;;;;;4992474;28;20453;-55
2020/12/24 01:16:53;;;;;;;1.40;1.20;;;21.30;39.70;;;;;;4991927;28;20888;-55
2020/12/24 01:19:19;;;;;;;2.00;1.30;;;21.30;39.70;;;;;;4992435;28;20656;-56
2020/12/24 01:21:46;;;;;;;2.20;1.20;;;21.30;39.70;;;;;;4992308;28;20399;-56
2020/12/24 01:24:12;;;;;;;2.03;1.20;;;21.30;39.70;;;;;;4992331;28;20859;-55
2020/12/24 01:26:37;;;;;;;1.80;1.23;;;21.30;39.70;;;;;;4974580;28;20445;-56
2020/12/24 01:29:03;;;;;;;1.70;1.10;;;21.30;39.70;;;;;;4991987;28;20949;-56
2020/12/24 01:31:28;;;;;;;1.83;1.15;;;21.30;39.60;;;;;;4974944;28;20394;-56
2020/12/24 01:33:54;;;;;;;1.67;1.07;;;21.30;39.60;;;;;;4994753;28;20396;-58
2020/12/24 01:36:21;;;;;;;1.90;1.23;;;21.30;39.70;;;;;;4992937;28;20443;-56
2020/12/24 01:38:47;;;;;;;1.60;1.20;;;21.30;39.70;;;;;;4999248;28;20389;-63
2020/12/24 01:41:12;;;;;;;1.60;1.10;;;21.30;39.70;;;;;;5000648;28;20433;-56
2020/12/24 01:43:38;;;;;;;2.00;1.30;;;21.30;39.70;;;;;;4998691;28;20386;-66
2020/12/24 01:46:04;;;;;;;2.03;1.37;;;21.30;39.70;;;;;;5000910;28;20439;-57
2020/12/24 01:48:29;;;;;;;2.40;1.20;;;21.30;39.70;;;;;;5000132;28;20428;-56
2020/12/24 01:50:55;;;;;;;1.77;1.23;;;21.30;39.70;;;;;;4999914;28;20389;-56
2020/12/24 01:53:24;;;;;;;1.90;0.90;;;21.30;39.70;;;;;;5006045;28;21005;-57
2020/12/24 01:55:51;;;;;;;2.35;1.30;;;21.30;39.60;;;;;;5006608;28;20479;-57
2020/12/24 01:58:18;;;;;;;1.65;1.10;;;21.30;39.60;;;;;;5017998;28;20408;-56
2020/12/24 02:00:47;;;;;;;2.22;1.13;;;21.30;39.60;;;;;;5017567;28;20727;-56
2020/12/24 02:03:16;;;;;;;2.05;1.30;;;21.30;39.60;;;;;;5017845;28;20486;-56
2020/12/24 02:05:42;;;;;;;1.45;1.10;;;21.30;39.70;;;;;;5017958;28;20393;-56
2020/12/24 02:08:09;;;;;;;1.88;1.20;;;21.30;39.70;;;;;;5017913;28;20526;-56
2020/12/24 02:10:35;;;;;;;2.80;1.40;;;21.30;39.60;;;;;;5018003;28;20439;-56
2020/12/24 02:13:00;;;;;;;1.97;1.27;;;21.30;39.60;;;;;;5017480;28;20397;-56
2020/12/24 02:15:26;;;;;;;1.90;1.20;;;21.30;39.60;;;;;;5018038;28;20756;-56
2020/12/24 02:17:52;;;;;;;1.50;1.10;;;21.30;39.50;;;;;;5017943;28;20443;-56
2020/12/24 02:20:17;;;;;;;2.05;1.33;;;21.30;39.50;;;;;;5017944;28;20435;-56
2020/12/24 02:22:43;;;;;;;1.70;1.20;;;21.30;39.50;;;;;;5017443;28;20769;-56
2020/12/24 02:25:09;;;;;;;2.30;1.30;;;21.30;39.50;;;;;;5017649;28;20424;-56
2020/12/24 02:27:34;;;;;;;1.67;1.17;;;21.30;39.50;;;;;;5017793;28;20427;-55
2020/12/24 02:30:01;;;;;;;2.10;1.25;;;21.30;39.50;;;;;;5017636;28;20392;-56
2020/12/24 02:32:28;;;;;;;1.45;1.25;;;21.30;39.40;;;;;;5017893;28;20388;-55
2020/12/24 02:34:55;;;;;;;1.73;1.15;;;21.30;39.40;;;;;;5017351;28;20395;-56
2020/12/24 02:37:23;;;;;;;1.50;1.10;;;21.30;39.40;;;;;;5017860;28;20745;-56
2020/12/24 02:39:50;;;;;;;1.70;1.20;;;21.30;39.40;;;;;;5017681;28;20730;-57
2020/12/24 02:42:17;;;;;;;1.88;1.20;;;21.30;39.40;;;;;;5017794;28;20392;-56
2020/12/24 02:44:42;;;;;;;2.10;1.40;;;21.30;39.30;;;;;;5017393;28;20407;-56
2020/12/24 02:47:08;;;;;;;1.90;1.25;;;21.30;39.40;;;;;;5017379;28;20972;-56
2020/12/24 02:49:33;;;;;;;1.58;1.17;;;21.30;39.40;;;;;;5017704;28;20415;-56
2020/12/24 02:51:59;;;;;;;1.70;1.20;;;21.30;39.40;;;;;;5017639;28;20392;-56
2020/12/24 02:54:25;;;;;;;1.60;1.27;;;21.30;39.30;;;;;;5017647;28;20395;-56
2020/12/24 02:56:50;;;;;;;1.42;1.20;;;21.30;39.30;;;;;;5017111;28;20435;-56
2020/12/24 02:59:16;;;;;;;1.73;1.20;;;21.30;39.30;;;;;;5017633;28;20392;-56
2020/12/24 03:01:42;;;;;;;1.73;1.17;;;21.30;39.30;;;;;;5017372;28;20746;-56
2020/12/24 03:04:07;;;;;;;2.47;1.30;;;21.30;39.30;;;;;;5015324;28;20436;-56
2020/12/24 03:06:33;;;;;;;2.00;1.30;;;21.30;39.30;;;;;;5014311;28;20491;-56
2020/12/24 03:08:58;;;;;;;1.50;1.10;;;21.30;39.20;;;;;;5013764;28;20393;-56
2020/12/24 03:11:24;;;;;;;1.60;1.20;;;21.30;39.20;;;;;;5014492;28;20399;-56
2020/12/24 03:13:49;;;;;;;1.70;1.20;;;21.30;39.20;;;;;;5014280;28;20396;-56
2020/12/24 03:16:15;;;;;;;1.70;1.30;;;21.30;39.20;;;;;;5014383;28;20451;-56
2020/12/24 03:18:41;;;;;;;1.60;1.20;;;21.30;39.20;;;;;;5014598;28;20435;-56
2020/12/24 03:21:07;;;;;;;1.50;1.10;;;21.30;39.20;;;;;;5013892;28;20900;-56
2020/12/24 03:23:33;;;;;;;1.50;1.10;;;21.30;39.20;;;;;;5014168;28;20442;-56
2020/12/24 03:25:59;;;;;;;1.90;1.17;;;21.30;39.10;;;;;;5013968;28;20484;-56
2020/12/24 03:28:24;;;;;;;1.80;1.30;;;21.30;39.10;;;;;;5014072;28;20504;-56
2020/12/24 03:30:50;;;;;;;1.77;1.20;;;21.30;39.10;;;;;;5013595;28;20397;-56
2020/12/24 03:33:15;;;;;;;1.70;1.17;;;21.30;39.10;;;;;;5014049;28;20388;-56
2020/12/24 03:35:41;;;;;;;1.20;1.00;;;21.30;39.10;;;;;;5014000;28;20452;-56
2020/12/24 03:38:07;;;;;;;1.55;1.10;;;21.30;39.10;;;;;;5013819;28;20399;-56
2020/12/24 03:40:32;;;;;;;1.90;1.30;;;21.30;39.10;;;;;;5013894;28;20474;-56
2020/12/24 03:42:58;;;;;;;1.30;1.10;;;21.30;39.10;;;;;;5013281;28;20405;-55
2020/12/24 03:45:24;;;;;;;1.80;1.30;;;21.30;39.10;;;;;;5013759;28;20389;-56
2020/12/24 03:47:49;;;;;;;1.77;1.20;;;21.30;39.10;;;;;;5013546;28;20462;-56
2020/12/24 03:50:15;;;;;;;1.60;1.17;;;21.30;39.10;;;;;;5013663;28;20816;-56
2020/12/24 03:52:41;;;;;;;1.63;1.30;;;21.20;39.00;;;;;;5013674;28;20388;-57
2020/12/24 03:55:07;;;;;;;1.80;1.13;;;21.30;39.00;;;;;;5013126;28;20457;-56
2020/12/24 03:57:33;;;;;;;1.50;1.10;;;21.30;39.00;;;;;;5013498;28;20947;-56
2020/12/24 03:59:58;;;;;;;1.50;1.00;;;21.30;39.00;;;;;;5013457;28;20480;-56
2020/12/24 04:02:24;;;;;;;1.70;1.20;;;21.30;39.00;;;;;;5013345;28;20495;-56
2020/12/24 04:04:49;;;;;;;1.50;1.10;;;21.30;39.00;;;;;;5012879;28;20453;-56
2020/12/24 04:07:18;;;;;;;1.50;1.10;;;21.30;39.00;;;;;;5013329;28;20489;-56
2020/12/24 04:09:43;;;;;;;1.42;1.05;;;21.30;39.00;;;;;;4995730;28;20385;-56
2020/12/24 04:12:09;;;;;;;1.40;1.20;;;21.30;39.00;;;;;;5013317;28;20931;-56
2020/12/24 04:14:34;;;;;;;1.30;1.05;;;21.20;38.90;;;;;;5013300;28;20400;-56
2020/12/24 04:17:00;;;;;;;1.70;1.20;;;21.30;39.00;;;;;;5012335;28;20861;-56
2020/12/24 04:19:26;;;;;;;1.60;1.20;;;21.20;38.90;;;;;;5013251;28;20924;-56
2020/12/24 04:21:51;;;;;;;1.80;1.10;;;21.20;38.90;;;;;;5013008;28;20413;-56
2020/12/24 04:24:17;;;;;;;1.63;1.30;;;21.30;39.00;;;;;;5013067;28;20749;-55
2020/12/24 04:26:42;;;;;;;1.83;1.20;;;21.20;38.90;;;;;;5012592;28;20919;-57
2020/12/24 04:29:08;;;;;;;1.63;1.27;;;21.20;39.00;;;;;;5012427;28;20777;-56
2020/12/24 04:31:39;;;;;;;1.50;1.20;;;21.30;39.00;;;;;;5012854;28;20399;-56
2020/12/24 04:34:05;;;;;;;1.50;1.02;;;21.20;38.90;;;;;;5012863;28;20380;-56
2020/12/24 04:36:31;;;;;;;1.38;1.02;;;21.30;39.00;;;;;;5012820;28;20401;-56
2020/12/24 04:38:56;;;;;;;1.40;1.00;;;21.20;38.90;;;;;;5012280;28;20393;-56
2020/12/24 04:41:23;;;;;;;1.45;1.10;;;21.20;38.90;;;;;;5012759;28;20420;-56
2020/12/24 04:43:49;;;;;;;1.48;1.15;;;21.20;38.90;;;;;;5012641;28;20492;-56
2020/12/24 04:46:16;;;;;;;1.02;0.93;;;21.20;38.90;;;;;;5012605;28;20479;-56
2020/12/24 04:48:43;;;;;;;1.38;1.10;;;21.30;38.90;;;;;;5012532;28;20401;-56
2020/12/24 04:51:09;;;;;;;1.60;1.13;;;21.20;38.90;;;;;;5012015;28;20869;-56
2020/12/24 04:53:37;;;;;;;1.55;1.10;;;21.20;38.90;;;;;;5012481;28;20401;-56
2020/12/24 04:56:05;;;;;;;1.45;1.10;;;21.20;38.90;;;;;;5012413;28;20381;-56
2020/12/24 04:58:31;;;;;;;1.50;1.10;;;21.20;38.90;;;;;;5012384;28;20405;-55
2020/12/24 05:00:57;;;;;;;1.40;1.13;;;21.20;38.90;;;;;;5011846;28;20534;-56
2020/12/24 05:03:23;;;;;;;1.35;1.10;;;21.20;38.90;;;;;;4994601;28;20490;-56
2020/12/24 05:05:48;;;;;;;1.50;1.10;;;21.20;38.90;;;;;;5012218;28;20952;-56
2020/12/24 05:08:14;;;;;;;1.50;1.07;;;21.20;38.90;;;;;;4994640;28;20413;-56
2020/12/24 05:10:39;;;;;;;1.30;1.13;;;21.20;38.90;;;;;;5012297;28;20749;-56
2020/12/24 05:13:15;;;;;;;1.47;1.13;;;21.20;38.90;;;;;;5011702;28;20483;-55
2020/12/24 05:15:41;;;;;;;1.40;1.00;;;21.20;38.90;;;;;;5012449;28;20385;-56
2020/12/24 05:18:14;;;;;;;1.60;1.20;;;21.20;38.90;;;;;;5012117;28;21007;-56
2020/12/24 05:20:41;;;;;;;1.42;1.13;;;21.20;39.00;;;;;;5012135;28;20796;-56
2020/12/24 05:23:13;;;;;;;1.52;1.20;;;21.20;38.90;;;;;;5011593;28;20920;-56
2020/12/24 05:25:40;;;;;;;1.40;0.95;;;21.20;38.90;;;;;;5011803;28;20399;-56
2020/12/24 05:28:06;;;;;;;1.98;1.30;;;21.20;38.90;;;;;;5010668;28;20417;-56
2020/12/24 05:30:33;;;;;;;1.50;1.20;;;21.20;38.90;;;;;;5011715;28;20397;-56
2020/12/24 05:32:58;;;;;;;1.43;1.10;;;21.20;38.90;;;;;;4993793;28;20920;-56
2020/12/24 05:35:26;;;;;;;1.50;1.10;;;21.20;38.90;;;;;;5011771;28;20416;-55
2020/12/24 05:37:53;;;;;;;1.75;1.20;;;21.20;38.80;;;;;;5011784;28;20476;-56
2020/12/24 05:40:24;;;;;;;1.77;1.30;;;21.20;38.80;;;;;;5011970;28;20738;-55
2020/12/24 05:42:55;;;;;;;1.40;1.13;;;21.20;38.90;;;;;;5011422;28;20400;-56
2020/12/24 05:45:23;;;;;;;1.55;1.13;;;21.20;38.90;;;;;;5011782;28;20402;-56
2020/12/24 05:48:07;;;;;;;1.67;1.30;;;21.20;39.00;;;;;;5011693;28;20412;-56
2020/12/24 05:50:34;;;;;;;1.50;1.10;;;21.20;39.00;;;;;;5011559;28;20468;-55
2020/12/24 05:53:07;;;;;;;2.30;1.15;;;21.20;39.00;;;;;;5011358;28;20765;-56
2020/12/24 05:55:35;;;;;;;3.80;1.27;;;21.20;39.10;;;;;;5011573;28;20393;-56
2020/12/24 05:58:01;;;;;;;2.15;1.17;;;21.30;39.50;;;;;;5011538;28;20495;-56
2020/12/24 06:00:35;;;;;;;2.70;1.00;;;21.20;38.90;;;;;;5011562;28;20480;-56
2020/12/24 06:03:23;;;;;;;5.50;1.40;;;21.30;39.20;;;;;;5010890;28;20420;-55
2020/12/24 06:06:18;;;;;;;4.03;1.30;;;21.20;39.20;;;;;;5011828;28;20396;-57
2020/12/24 06:08:46;;;;;;;3.40;1.20;;;21.20;39.20;;;;;;4986804;28;20513;-55
2020/12/24 06:11:13;;;;;;;2.72;1.30;;;21.20;39.20;;;;;;5011232;28;20476;-55
2020/12/24 06:13:48;;;;;;;3.25;1.30;;;21.20;39.30;;;;;;5011446;28;20393;-55
2020/12/24 06:16:14;;;;;;;2.58;1.10;;;21.20;39.30;;;;;;5011483;28;20438;-55
2020/12/24 06:18:44;;;;;;;3.88;1.45;;;21.20;39.30;;;;;;5011474;28;20432;-55
2020/12/24 06:21:20;;;;;;;2.90;1.20;;;21.20;39.20;;;;;;5010899;28;20952;-55
2020/12/24 06:23:48;;;;;;;2.58;1.20;;;21.20;39.30;;;;;;5011391;28;20477;-56
2020/12/24 06:26:21;;;;;;;1.98;1.17;;;21.20;39.30;;;;;;5010684;28;20427;-55
2020/12/24 06:28:50;;;;;;;2.88;1.15;;;21.20;39.20;;;;;;5011141;28;20480;-56
2020/12/24 06:31:19;;;;;;;2.07;1.20;;;21.20;39.20;;;;;;5010829;28;20857;-56
2020/12/24 06:33:44;;;;;;;2.35;1.00;;;21.20;39.20;;;;;;5011285;28;20393;-55
2020/12/24 06:36:36;;;;;;;2.65;1.10;;;21.20;39.20;;;;;;5011152;28;20419;-56
2020/12/24 06:39:03;;;;;;;1.60;1.00;;;21.20;39.20;;;;;;5012090;28;20479;-55
2020/12/24 06:41:38;;;;;;;1.95;1.00;;;21.20;39.20;;;;;;5014885;28;20388;-56
2020/12/24 06:44:05;;;;;;;2.20;1.08;;;21.20;39.20;;;;;;5014892;28;20443;-55
2020/12/24 06:46:56;;;;;;;2.00;1.00;;;21.20;39.20;;;;;;5014629;28;20427;-55
2020/12/24 06:49:32;;;;;;;3.05;1.20;;;21.20;39.50;;;;;;5014875;28;20915;-55
2020/12/24 06:51:58;;;;;;;2.83;1.03;;;21.20;39.80;;;;;;5014680;28;20396;-55
2020/12/24 06:54:28;;;;;;;2.58;1.00;;;21.30;39.90;;;;;;5014606;28;20376;-56
2020/12/24 06:57:22;;;;;;;1.63;1.00;;;21.40;39.90;;;;;;5014361;28;20393;-56
2020/12/24 07:00:09;;;;;;;2.90;1.10;;;21.40;40.50;;;;;;4996723;28;20784;-56
2020/12/24 07:02:34;;;;;;;1.63;1.10;;;21.50;41.20;;;;;;5014218;28;20416;-56
2020/12/24 07:05:00;;;;;;;2.00;1.00;;;21.50;41.00;;;;;;5013985;28;20964;-56
2020/12/24 07:07:43;;;;;;;3.03;0.97;;;21.50;40.80;;;;;;5013233;28;20419;-55
2020/12/24 07:10:08;;;;;;;2.20;1.00;;;21.60;40.70;;;;;;5014400;28;20392;-56
2020/12/24 07:12:35;;;;;;;1.35;0.98;;;21.60;40.70;;;;;;5014402;28;20400;-56
2020/12/24 07:15:20;;;;;;;1.92;0.93;;;21.60;40.70;;;;;;5013764;28;20400;-56
2020/12/24 07:17:46;;;;;;;2.00;1.00;;;21.60;40.40;;;;;;5014236;28;20393;-55
2020/12/24 07:20:15;;;;;;;2.30;0.93;;;21.50;40.60;;;;;;5014256;28;20389;-56
2020/12/24 07:22:43;;;;;;;4.05;1.17;;;21.60;40.50;;;;;;5014232;28;20416;-57
2020/12/24 07:25:09;;;;;;;4.47;0.90;;;21.60;40.50;;;;;;5013697;28;20940;-56
2020/12/24 07:27:52;;;;;;;2.22;0.93;;;21.50;40.30;;;;;;5014027;28;20984;-56
2020/12/24 07:30:21;;;;;;;4.13;1.00;;;21.60;40.80;;;;;;5014048;28;20420;-56
2020/12/24 07:32:54;;;;;;;1.17;0.70;;;21.60;41.10;;;;;;5013900;28;20393;-56
2020/12/24 07:35:20;;;;;;;4.23;0.90;;;21.60;40.80;;;;;;5013777;28;20421;-56
2020/12/24 07:37:48;;;;;;;5.68;1.00;;;21.70;41.00;;;;;;5013807;28;20778;-56
2020/12/24 07:40:14;;;;;;;2.97;0.82;;;21.70;40.90;;;;;;5013855;28;20411;-57
2020/12/24 07:42:39;;;;;;;8.27;1.55;;;21.90;40.70;;;;;;5013818;28;20885;-56
2020/12/24 07:45:05;;;;;;;6.00;1.00;;;21.90;41.00;;;;;;5013107;28;20393;-57
2020/12/24 07:47:31;;;;;;;8.30;0.90;;;21.90;41.00;;;;;;5013894;28;20432;-60
2020/12/24 07:49:56;;;;;;;7.63;0.90;;;22.00;41.30;;;;;;5013246;28;20483;-55
2020/12/24 07:52:22;;;;;;;4.22;1.00;;;21.90;41.20;;;;;;5013255;28;20393;-56
2020/12/24 07:54:48;;;;;;;3.42;0.88;;;21.90;41.00;;;;;;5013260;28;20385;-56
2020/12/24 07:57:23;;;;;;;7.00;1.00;;;21.90;40.80;;;;;;5012830;28;20412;-56
2020/12/24 07:59:58;;;;;;;4.60;0.80;;;21.90;41.00;;;;;;5013657;28;20472;-57
2020/12/24 08:02:24;;;;;;;2.53;0.70;;;21.90;40.90;;;;;;5013272;28;20421;-55
2020/12/24 08:04:55;;;;;;;3.20;0.80;;;21.90;40.80;;;;;;5013160;28;20858;-58
2020/12/24 08:07:21;;;;;;;2.35;0.65;;;21.90;40.80;;;;;;5002165;28;20507;-56
2020/12/24 08:09:47;;;;;;;7.40;0.83;;;21.90;40.80;;;;;;5001541;28;20481;-56
2020/12/24 08:12:21;;;;;;;4.60;0.73;;;21.90;40.50;;;;;;5001504;28;20484;-57
2020/12/24 08:14:46;;;;;;;11.05;0.95;;;21.80;40.60;;;;;;5004018;28;20545;-56
2020/12/24 08:17:24;;;;;;;6.77;0.80;;;21.90;40.70;;;;;;5000300;28;20502;-56
2020/12/24 08:19:59;;;;;;;6.13;0.80;;;21.90;41.10;;;;;;5000000;28;20394;-59
2020/12/24 08:22:50;;;;;;;5.57;0.75;;;22.00;40.30;;;;;;5009372;28;20419;-56
2020/12/24 08:25:17;;;;;;;4.10;0.80;;;22.00;40.70;;;;;;4992312;28;20482;-56
2020/12/24 08:27:45;;;;;;;3.50;0.80;;;22.00;41.40;;;;;;4992759;28;20945;-67
2020/12/24 08:30:12;;;;;;;4.43;0.70;;;22.00;40.60;;;;;;4993240;28;20422;-56
2020/12/24 08:32:38;;;;;;;1.63;0.60;;;22.00;40.60;;;;;;4975176;28;20413;-56
2020/12/24 08:35:08;;;;;;;4.47;0.70;;;22.00;40.70;;;;;;4992254;28;20401;-56
2020/12/24 08:37:34;;;;;;;4.28;0.80;;;22.00;40.60;;;;;;4992847;28;20978;-56
2020/12/24 08:40:00;;;;;;;4.30;0.60;;;22.00;40.60;;;;;;4992932;28;20548;-56
2020/12/24 08:42:30;;;;;;;2.83;0.90;;;22.00;40.30;;;;;;4993094;28;20502;-56
2020/12/24 08:44:56;;;;;;;5.53;0.77;;;22.00;40.60;;;;;;4992894;28;20740;-56
2020/12/24 08:47:22;;;;;;;3.92;0.60;;;22.00;40.10;;;;;;4992774;28;20421;-56
2020/12/24 08:49:48;;;;;;;2.40;0.70;;;22.00;40.40;;;;;;4991540;28;20402;-56
2020/12/24 08:52:22;;;;;;;3.10;0.60;;;22.00;40.50;;;;;;4992952;28;20440;-56
2020/12/24 08:55:02;;;;;;;2.90;0.60;;;22.00;40.30;;;;;;4992431;28;20398;-56
2020/12/24 08:57:28;;;;;;;5.20;0.90;;;21.90;39.70;;;;;;4992490;28;20398;-56
2020/12/24 08:59:58;;;;;;;3.63;0.68;;;21.90;40.60;;;;;;4992744;28;20402;-57
2020/12/24 09:02:25;;;;;;;4.60;0.80;;;21.90;40.30;;;;;;5004039;28;20417;-56
2020/12/24 09:04:57;;;;;;;5.20;0.70;;;21.90;40.20;;;;;;5000623;28;20482;-56
2020/12/24 09:07:25;;;;;;;7.30;0.82;;;21.80;39.80;;;;;;5000746;28;20478;-56
2020/12/24 09:10:27;;;;;;;7.90;0.90;;;21.80;39.40;;;;;;5002435;28;20405;-56
2020/12/24 09:12:57;;;;;;;5.53;0.90;;;21.80;39.00;;;;;;4951587;29;20414;-56
2020/12/24 09:15:28;;;;;;;7.82;1.00;;;21.70;39.20;;;;;;4985012;28;20401;-56
2020/12/24 09:18:00;;;;;;;5.05;0.70;;;21.60;39.90;;;;;;4991769;28;20406;-56
2020/12/24 09:20:34;;;;;;;4.00;0.90;;;21.60;39.40;;;;;;4992645;28;20398;-56
2020/12/24 09:23:12;;;;;;;5.32;0.90;;;21.60;40.10;;;;;;4992033;28;20902;-56
2020/12/24 09:25:43;;;;;;;4.73;0.83;;;21.60;40.10;;;;;;4992519;28;20394;-56
2020/12/24 09:28:25;;;;;;;5.43;1.00;;;21.60;40.10;;;;;;4992287;28;20457;-56
2020/12/24 09:30:57;;;;;;;5.70;1.20;;;21.60;40.30;;;;;;4992237;28;20746;-56
2020/12/24 09:33:23;;;;;;;3.10;0.70;;;21.60;39.80;;;;;;4992071;28;20638;-56
2020/12/24 09:35:49;;;;;;;2.65;0.80;;;21.60;39.60;;;;;;4992193;28;20395;-56
2020/12/24 09:38:14;;;;;;;2.70;0.67;;;21.70;39.40;;;;;;4992090;28;20389;-56
2020/12/24 09:40:40;;;;;;;3.30;0.73;;;21.70;39.30;;;;;;4992164;28;20405;-56
2020/12/24 09:43:07;;;;;;;3.33;0.90;;;21.70;39.30;;;;;;4991374;28;20394;-56
2020/12/24 09:45:33;;;;;;;3.42;0.70;;;21.70;39.30;;;;;;4991156;28;20481;-56
2020/12/24 09:47:58;;;;;;;2.85;0.60;;;21.70;39.10;;;;;;4991380;28;20422;-56
2020/12/24 09:50:25;;;;;;;4.60;0.77;;;21.60;39.10;;;;;;4991847;28;20391;-56
2020/12/24 09:52:50;;;;;;;4.43;0.80;;;21.60;39.00;;;;;;4990695;28;20471;-56
2020/12/24 09:55:16;;;;;;;6.32;1.23;;;21.60;39.00;;;;;;4991916;28;20485;-55
2020/12/24 09:57:42;;;;;;;2.72;0.82;;;21.60;39.10;;;;;;4994018;28;20882;-56
2020/12/24 10:00:10;;;;;;;3.43;0.70;;;21.60;39.10;;;;;;5005964;28;20389;-56
2020/12/24 10:02:36;;;;;;;2.90;0.90;;;21.60;39.00;;;;;;5001548;28;20421;-56
2020/12/24 10:05:03;;;;;;;3.58;0.70;;;21.60;39.10;;;;;;4999505;28;20395;-56
2020/12/24 10:07:29;;;;;;;4.32;0.70;;;21.60;39.30;;;;;;4999873;28;20432;-56
2020/12/24 10:09:55;;;;;;;3.90;0.70;;;21.50;39.20;;;;;;4998811;28;21631;-56
2020/12/24 10:12:21;;;;;;;3.03;0.67;;;21.50;39.30;;;;;;5002166;28;20403;-56
2020/12/24 10:14:48;;;;;;;3.13;0.98;;;21.50;39.30;;;;;;5002386;28;20395;-56
2020/12/24 10:17:15;;;;;;;3.97;0.70;;;21.50;39.20;;;;;;5004359;28;20414;-56
2020/12/24 10:19:43;;;;;;;4.82;0.88;;;21.50;39.20;;;;;;5003458;28;20390;-56
2020/12/24 10:22:09;;;;;;;2.33;0.88;;;21.50;39.50;;;;;;5004215;28;20424;-56
2020/12/24 10:24:35;;;;;;;3.08;1.35;;;21.50;39.40;;;;;;5005523;28;20401;-56
2020/12/24 10:27:01;;;;;;;4.65;1.80;;;21.50;39.50;;;;;;5005709;28;20743;-56
2020/12/24 10:29:27;;;;;;;5.65;1.50;;;21.40;39.30;;;;;;5003644;28;20904;-56
2020/12/24 10:31:52;;;;;;;3.33;1.13;;;21.40;39.80;;;;;;5004613;28;20386;-56
2020/12/24 10:34:18;;;;;;;4.63;1.20;;;21.40;39.50;;;;;;5003071;28;20406;-56
2020/12/24 10:36:44;;;;;;;3.83;0.95;;;21.30;39.90;;;;;;5004404;28;20450;-56
2020/12/24 10:39:10;;;;;;;2.80;1.17;;;21.30;39.80;;;;;;5003852;28;20390;-56
2020/12/24 10:41:37;;;;;;;3.42;1.00;;;21.30;39.60;;;;;;5002902;28;20786;-56
2020/12/24 10:44:04;;;;;;;3.38;1.00;;;21.30;39.80;;;;;;5011270;28;20396;-56
2020/12/24 10:46:30;;;;;;;3.53;0.80;;;21.30;39.50;;;;;;5010795;28;20461;-61
2020/12/24 10:48:56;;;;;;;2.60;0.90;;;21.30;39.50;;;;;;4995140;28;20437;-55
2020/12/24 10:51:22;;;;;;;3.47;0.88;;;21.40;39.40;;;;;;4977360;28;20406;-56
2020/12/24 10:53:49;;;;;;;5.13;1.00;;;21.40;39.50;;;;;;4995087;28;20875;-56
2020/12/24 10:56:15;;;;;;;5.88;0.88;;;21.30;40.80;;;;;;4994663;28;20390;-56
2020/12/24 10:58:42;;;;;;;4.47;1.00;;;21.40;40.40;;;;;;4976833;28;20409;-56
2020/12/24 11:01:11;;;;;;;3.17;0.80;;;21.40;41.00;;;;;;4993557;28;20387;-56
2020/12/24 11:03:37;;;;;;;5.13;1.40;;;21.50;41.90;;;;;;4994336;28;20446;-56
2020/12/24 11:06:07;;;;;;;5.25;1.20;;;21.60;42.60;;;;;;4994801;28;20422;-56
2020/12/24 11:08:33;;;;;;;6.10;1.48;;;21.70;44.20;;;;;;4994797;28;20461;-55
2020/12/24 11:11:00;;;;;;;4.63;1.10;;;21.80;45.50;;;;;;4994647;28;20390;-56
2020/12/24 11:13:26;;;;;;;5.65;1.30;;;21.80;44.80;;;;;;4994327;28;20394;-56
2020/12/24 11:15:52;;;;;;;5.50;1.20;;;21.90;46.40;;;;;;5014137;28;20391;-55
2020/12/24 11:18:18;;;;;;;6.67;1.30;;;21.90;45.20;;;;;;5014386;28;20397;-55
2020/12/24 11:20:43;;;;;;;10.82;1.70;;;21.90;44.80;;;;;;5014071;28;20400;-56
2020/12/24 11:23:09;;;;;;;10.07;1.50;;;21.80;45.60;;;;;;5006249;28;20399;-56
2020/12/24 11:25:35;;;;;;;8.85;1.50;;;21.80;47.10;;;;;;5000039;28;20426;-56
2020/12/24 11:28:01;;;;;;;7.53;1.20;;;21.80;46.70;;;;;;5002059;28;20431;-56
2020/12/24 11:30:27;;;;;;;5.23;1.20;;;21.90;46.60;;;;;;5003802;28;20761;-56
2020/12/24 11:32:53;;;;;;;4.80;1.30;;;21.90;46.20;;;;;;5001115;28;20430;-57
2020/12/24 11:35:19;;;;;;;5.93;1.30;;;21.90;45.50;;;;;;4999716;28;20810;-56
2020/12/24 11:37:45;;;;;;;6.38;1.27;;;21.90;45.90;;;;;;5000126;28;20905;-56
2020/12/24 11:40:10;;;;;;;4.57;1.30;;;21.90;45.90;;;;;;5001576;28;20396;-56
2020/12/24 11:42:36;;;;;;;29.63;1.83;;;22.00;46.30;;;;;;5003535;28;20471;-56
2020/12/24 11:45:02;;;;;;;15.10;1.65;;;22.00;47.70;;;;;;5000559;28;20381;-55
2020/12/24 11:47:28;;;;;;;7.53;1.20;;;22.00;46.50;;;;;;5000895;28;21116;-62
2020/12/24 11:49:54;;;;;;;7.60;1.27;;;21.90;46.30;;;;;;4999781;28;20390;-56
2020/12/24 11:52:20;;;;;;;17.40;1.67;;;21.90;46.10;;;;;;5001819;28;20904;-56
2020/12/24 11:54:46;;;;;;;16.85;1.73;;;21.90;45.70;;;;;;5002782;28;21073;-56
2020/12/24 11:57:11;;;;;;;17.45;1.98;;;21.90;44.80;;;;;;5000820;28;20814;-56
2020/12/24 11:59:38;;;;;;;12.33;1.80;;;21.90;44.80;;;;;;5003296;28;20393;-56
2020/12/24 12:02:03;;;;;;;11.75;1.50;;;21.90;45.10;;;;;;5001914;28;20451;-57
2020/12/24 12:04:29;;;;;;;10.80;1.80;;;21.90;45.20;;;;;;5001550;28;20389;-56
2020/12/24 12:06:54;;;;;;;6.17;1.17;;;21.90;45.20;;;;;;5002958;28;20459;-56
2020/12/24 12:09:20;;;;;;;7.28;1.13;;;22.10;43.80;;;;;;5000726;28;20910;-56
2020/12/24 12:11:46;;;;;;;4.83;1.43;;;22.10;44.80;;;;;;4996064;28;20431;-56
2020/12/24 12:14:12;;;;;;;7.10;1.10;;;22.10;45.70;;;;;;4997097;28;20408;-57
2020/12/24 12:16:38;;;;;;;6.13;1.10;;;22.10;44.70;;;;;;4991586;28;20395;-56
2020/12/24 12:19:04;;;;;;;6.07;1.20;;;22.10;44.60;;;;;;4991458;28;20410;-56
2020/12/24 12:21:29;;;;;;;7.20;1.20;;;22.10;44.80;;;;;;4991017;28;20390;-56
2020/12/24 12:23:56;;;;;;;4.57;1.00;;;22.10;44.20;;;;;;4991494;28;20399;-56
2020/12/24 12:26:22;;;;;;;5.47;1.20;;;22.10;43.80;;;;;;4991179;28;20394;-61
2020/12/24 12:28:47;;;;;;;7.03;1.27;;;22.10;44.80;;;;;;4991155;28;20407;-56
2020/12/24 12:31:22;;;;;;;6.07;1.43;;;22.20;44.80;;;;;;4990633;28;20823;-57
2020/12/24 12:33:52;;;;;;;4.85;1.40;;;22.20;44.90;;;;;;4991179;28;20395;-56
2020/12/24 12:36:19;;;;;;;5.30;0.90;;;22.20;45.30;;;;;;4998958;28;20393;-56
2020/12/24 12:38:46;;;;;;;4.85;1.10;;;22.20;45.10;;;;;;5000362;28;20869;-57
2020/12/24 12:41:13;;;;;;;4.93;1.00;;;22.30;44.20;;;;;;5003195;28;20400;-56
2020/12/24 12:43:40;;;;;;;12.18;1.48;;;22.30;44.40;;;;;;5007700;28;20397;-61
2020/12/24 12:46:07;;;;;;;5.97;1.30;;;22.30;44.50;;;;;;5007763;28;20420;-64
2020/12/24 12:48:33;;;;;;;6.10;1.07;;;22.40;44.80;;;;;;4990211;28;20825;-59